createdAt,value
2023-05-19T00:00:46.244Z,245.51
2023-05-19T00:01:44.509Z,241.07
2023-05-19T00:02:44.562Z,242.64
2023-05-19T00:03:44.523Z,240.07
2023-05-19T00:04:44.489Z,248.49
2023-05-19T00:05:44.523Z,249.24
2023-05-19T00:06:44.513Z,242.84
2023-05-19T00:07:44.513Z,240.16
2023-05-19T00:08:44.520Z,238.50
2023-05-19T00:09:44.525Z,234.87
2023-05-19T00:10:44.475Z,230.10
2023-05-19T00:11:44.435Z,231.96
2023-05-19T00:12:44.438Z,233.29
2023-05-19T00:13:44.433Z,230.92
2023-05-19T00:14:44.426Z,231.78
2023-05-19T00:15:44.478Z,234.00
2023-05-19T00:16:44.420Z,232.44
2023-05-19T00:17:44.411Z,232.72
2023-05-19T00:18:44.434Z,231.32
2023-05-19T00:19:44.388Z,230.27
2023-05-19T00:20:44.368Z,234.55
2023-05-19T00:21:44.408Z,235.94
2023-05-19T00:22:44.366Z,238.74
2023-05-19T00:23:44.373Z,243.96
2023-05-19T00:24:44.349Z,248.15
2023-05-19T00:25:44.371Z,240.13
2023-05-19T00:26:44.359Z,234.26
2023-05-19T00:27:44.350Z,230.42
2023-05-19T00:28:44.342Z,233.76
2023-05-19T00:29:44.323Z,235.04
2023-05-19T00:30:44.295Z,240.07
2023-05-19T00:31:44.345Z,244.05
2023-05-19T00:32:44.373Z,243.11
2023-05-19T00:33:44.287Z,238.53
2023-05-19T00:34:44.271Z,239.63
2023-05-19T00:35:44.285Z,243.19
2023-05-19T00:36:44.279Z,250.00
2023-05-19T00:37:44.251Z,245.46
2023-05-19T00:38:44.271Z,245.10
2023-05-19T00:39:44.259Z,244.04
2023-05-19T00:40:44.250Z,249.29
2023-05-19T00:41:44.237Z,247.90
2023-05-19T00:42:44.244Z,244.31
2023-05-19T00:43:44.254Z,250.00
2023-05-19T00:44:44.220Z,246.04
2023-05-19T00:45:44.219Z,246.10
2023-05-19T00:46:44.236Z,247.82
2023-05-19T00:47:44.281Z,250.09
2023-05-19T00:48:44.193Z,248.83
2023-05-19T00:49:44.171Z,248.56
2023-05-19T00:50:44.191Z,246.03
2023-05-19T00:51:44.193Z,245.62
2023-05-19T00:52:44.177Z,246.48
2023-05-19T00:53:44.145Z,242.65
2023-05-19T00:54:44.149Z,247.61
2023-05-19T00:55:44.158Z,247.25
2023-05-19T00:56:44.457Z,244.29
2023-05-19T00:57:44.124Z,240.94
2023-05-19T00:58:44.136Z,244.27
2023-05-19T00:59:44.090Z,242.13
2023-05-19T01:00:44.123Z,243.01
2023-05-19T01:01:44.149Z,246.53
2023-05-19T01:02:44.138Z,242.54
2023-05-19T01:03:44.218Z,243.76
2023-05-19T01:04:44.073Z,243.63
2023-05-19T01:05:44.084Z,241.83
2023-05-19T01:06:44.207Z,241.50
2023-05-19T01:07:44.091Z,245.87
2023-05-19T01:08:44.032Z,242.53
2023-05-19T01:09:44.050Z,245.63
2023-05-19T01:10:44.045Z,247.21
2023-05-19T01:11:44.018Z,245.41
2023-05-19T01:12:44.021Z,245.41
2023-05-19T01:13:44.251Z,234.88
2023-05-19T01:14:44.064Z,232.35
2023-05-19T01:15:44.042Z,229.80
2023-05-19T01:16:44.103Z,230.16
2023-05-19T01:17:44.011Z,228.53
2023-05-19T01:18:43.971Z,229.84
2023-05-19T01:19:43.997Z,233.72
2023-05-19T01:20:43.982Z,239.46
2023-05-19T01:21:44.000Z,244.13
2023-05-19T01:22:43.945Z,241.03
2023-05-19T01:23:43.915Z,241.81
2023-05-19T01:24:43.937Z,238.07
2023-05-19T01:25:43.920Z,238.09
2023-05-19T01:26:43.919Z,237.40
2023-05-19T01:27:43.934Z,236.94
2023-05-19T01:28:43.927Z,233.61
2023-05-19T01:29:43.878Z,235.24
2023-05-19T01:30:43.886Z,239.38
2023-05-19T01:31:43.913Z,244.43
2023-05-19T01:32:43.865Z,247.25
2023-05-19T01:33:43.857Z,247.14
2023-05-19T01:34:43.825Z,244.69
2023-05-19T01:35:43.896Z,244.62
2023-05-19T01:36:43.823Z,245.01
2023-05-19T01:37:43.847Z,240.52
2023-05-19T01:38:43.836Z,234.79
2023-05-19T01:39:43.793Z,234.09
2023-05-19T01:40:43.850Z,231.74
2023-05-19T01:41:43.827Z,232.19
2023-05-19T01:42:43.834Z,236.35
2023-05-19T01:43:43.818Z,240.86
2023-05-19T01:44:43.790Z,244.58
2023-05-19T01:45:43.854Z,243.76
2023-05-19T01:46:43.790Z,240.15
2023-05-19T01:47:43.807Z,233.82
2023-05-19T01:48:43.766Z,234.30
2023-05-19T01:49:43.763Z,236.38
2023-05-19T01:50:43.811Z,240.17
2023-05-19T01:51:43.842Z,240.58
2023-05-19T01:52:43.883Z,242.69
2023-05-19T01:53:43.904Z,248.51
2023-05-19T01:54:43.942Z,244.72
2023-05-19T01:55:44.044Z,244.38
2023-05-19T01:56:44.024Z,242.67
2023-05-19T01:57:44.029Z,248.12
2023-05-19T01:58:44.108Z,245.50
2023-05-19T01:59:44.141Z,249.44
2023-05-19T02:00:44.196Z,249.41
2023-05-19T02:01:44.288Z,250.00
2023-05-19T02:02:44.302Z,249.80
2023-05-19T02:03:44.329Z,249.68
2023-05-19T02:04:44.549Z,248.41
2023-05-19T02:05:44.401Z,250.45
2023-05-19T02:06:44.457Z,250.18
2023-05-19T02:07:44.463Z,248.64
2023-05-19T02:08:44.553Z,247.44
2023-05-19T02:09:44.551Z,244.72
2023-05-19T02:10:44.623Z,242.73
2023-05-19T02:11:44.624Z,244.36
2023-05-19T02:12:44.700Z,239.25
2023-05-19T02:13:44.703Z,236.29
2023-05-19T02:14:44.766Z,233.97
2023-05-19T02:15:44.876Z,234.89
2023-05-19T02:16:44.941Z,233.37
2023-05-19T02:17:44.965Z,235.10
2023-05-19T02:18:44.946Z,234.58
2023-05-19T02:19:45.001Z,232.06
2023-05-19T02:20:45.055Z,231.45
2023-05-19T02:21:45.075Z,231.66
2023-05-19T02:22:45.133Z,230.45
2023-05-19T02:25:05.425Z,25.00
2023-05-19T02:26:05.378Z,25.00
2023-05-19T02:27:15.380Z,25.00
2023-05-19T02:28:15.423Z,25.00
2023-05-19T02:29:17.409Z,25.00
2023-05-19T02:30:05.325Z,25.00
2023-05-19T02:31:05.313Z,25.00
2023-05-19T02:34:44.708Z,25.00
2023-05-19T02:35:44.702Z,25.00
2023-05-19T02:36:44.900Z,25.00
2023-05-19T02:37:44.670Z,25.00
2023-05-19T02:38:44.667Z,25.00
2023-05-19T02:39:44.666Z,28.27
2023-05-19T02:40:44.725Z,25.44
2023-05-19T02:41:44.629Z,26.33
2023-05-19T02:42:44.633Z,25.11
2023-05-19T02:43:44.645Z,34.19
2023-05-19T02:44:44.661Z,25.00
2023-05-19T02:45:44.646Z,24.49
2023-05-19T02:46:44.677Z,32.97
2023-05-19T02:47:44.707Z,39.38
2023-05-19T02:48:44.621Z,45.17
2023-05-19T02:49:44.591Z,37.84
2023-05-19T02:50:44.626Z,43.61
2023-05-19T02:51:44.700Z,41.52
2023-05-19T02:52:44.766Z,38.03
2023-05-19T02:53:44.892Z,41.78
2023-05-19T02:54:44.832Z,46.35
2023-05-19T02:55:44.870Z,39.61
2023-05-19T02:56:44.983Z,35.22
2023-05-19T02:57:44.939Z,54.67
2023-05-19T02:58:44.969Z,67.34
2023-05-19T02:59:45.173Z,89.05
2023-05-19T03:00:45.103Z,109.35
2023-05-19T03:01:45.178Z,103.48
2023-05-19T03:02:45.248Z,106.02
2023-05-19T03:03:45.310Z,119.67
2023-05-19T03:04:45.296Z,141.12
2023-05-19T03:05:45.265Z,162.55
2023-05-19T03:06:45.383Z,171.38
2023-05-19T03:07:45.372Z,159.11
2023-05-19T03:08:45.440Z,152.58
2023-05-19T03:09:45.491Z,157.42
2023-05-19T03:10:45.602Z,158.67
2023-05-19T03:11:45.557Z,156.73
2023-05-19T03:12:45.587Z,158.92
2023-05-19T03:13:45.670Z,169.88
2023-05-19T03:14:45.715Z,173.60
2023-05-19T03:15:45.773Z,171.46
2023-05-19T03:16:45.940Z,159.49
2023-05-19T03:17:46.014Z,161.47
2023-05-19T03:18:45.883Z,164.08
2023-05-19T03:19:45.975Z,144.19
2023-05-19T03:20:46.041Z,144.13
2023-05-19T03:21:45.996Z,122.18
2023-05-19T03:22:46.102Z,132.85
2023-05-19T03:23:46.113Z,126.30
2023-05-19T03:24:46.145Z,113.73
2023-05-19T03:25:46.285Z,117.34
2023-05-19T03:26:46.381Z,126.50
2023-05-19T03:27:46.344Z,116.00
2023-05-19T03:28:46.395Z,124.81
2023-05-19T03:29:46.493Z,117.03
2023-05-19T03:30:46.446Z,116.57
2023-05-19T03:31:46.573Z,119.27
2023-05-19T03:32:46.713Z,132.95
2023-05-19T03:33:46.630Z,150.52
2023-05-19T03:34:46.733Z,163.36
2023-05-19T03:35:46.791Z,162.80
2023-05-19T03:36:46.840Z,154.68
2023-05-19T03:37:46.884Z,149.73
2023-05-19T03:38:47.100Z,161.05
2023-05-19T03:39:47.023Z,166.40
2023-05-19T03:40:47.083Z,147.90
2023-05-19T03:41:47.394Z,127.24
2023-05-19T03:42:47.451Z,125.89
2023-05-19T03:43:47.265Z,124.90
2023-05-19T03:44:47.322Z,111.03
2023-05-19T03:45:47.524Z,118.30
2023-05-19T03:46:47.426Z,156.79
2023-05-19T03:47:47.561Z,196.33
2023-05-19T03:48:47.579Z,223.62
2023-05-19T03:49:47.652Z,246.09
2023-05-19T03:50:47.674Z,245.86
2023-05-19T03:51:47.714Z,222.76
2023-05-19T03:52:47.837Z,221.81
2023-05-19T03:53:47.798Z,216.72
2023-05-19T03:54:47.795Z,205.74
2023-05-19T03:55:47.805Z,213.82
2023-05-19T03:56:47.803Z,221.30
2023-05-19T03:57:47.817Z,226.75
2023-05-19T03:58:47.867Z,233.95
2023-05-19T03:59:47.974Z,249.11
2023-05-19T04:00:47.900Z,250.00
2023-05-19T04:01:47.988Z,250.00
2023-05-19T04:02:48.076Z,249.85
2023-05-19T04:03:48.144Z,250.00
2023-05-19T04:04:48.171Z,242.43
2023-05-19T04:05:48.160Z,238.79
2023-05-19T04:06:48.189Z,233.46
2023-05-19T04:07:48.131Z,234.81
2023-05-19T04:08:48.158Z,243.89
2023-05-19T04:09:48.200Z,241.65
2023-05-19T04:10:48.231Z,231.18
2023-05-19T04:11:48.269Z,232.37
2023-05-19T04:12:48.252Z,230.62
2023-05-19T04:13:48.224Z,236.83
2023-05-19T04:14:48.276Z,243.35
2023-05-19T04:15:48.307Z,250.60
2023-05-19T04:16:48.351Z,250.65
2023-05-19T04:17:48.439Z,250.45
2023-05-19T04:18:48.491Z,250.00
2023-05-19T04:19:48.526Z,250.00
2023-05-19T04:20:48.520Z,249.09
2023-05-19T04:21:48.531Z,239.02
2023-05-19T04:22:48.575Z,231.27
2023-05-19T04:23:48.603Z,219.80
2023-05-19T04:24:48.546Z,212.01
2023-05-19T04:25:48.641Z,211.48
2023-05-19T04:26:48.552Z,210.93
2023-05-19T04:27:48.582Z,209.42
2023-05-19T04:28:48.705Z,199.17
2023-05-19T04:29:48.580Z,194.89
2023-05-19T04:30:48.629Z,199.57
2023-05-19T04:31:48.589Z,192.59
2023-05-19T04:32:48.645Z,193.51
2023-05-19T04:33:48.629Z,197.62
2023-05-19T04:34:48.622Z,205.43
2023-05-19T04:35:48.614Z,201.69
2023-05-19T04:36:49.494Z,207.04
2023-05-19T04:37:48.626Z,219.02
2023-05-19T04:38:48.725Z,217.95
2023-05-19T04:39:48.734Z,221.66
2023-05-19T04:40:48.823Z,213.05
2023-05-19T04:41:48.878Z,207.06
2023-05-19T04:42:48.880Z,216.12
2023-05-19T04:43:48.861Z,220.26
2023-05-19T04:45:14.713Z,25.00
2023-05-19T04:46:14.739Z,25.00
2023-05-19T04:47:14.655Z,25.00
2023-05-19T04:48:14.606Z,25.00
2023-05-19T04:49:14.600Z,25.00
2023-05-19T04:50:14.653Z,25.59
2023-05-19T04:51:14.894Z,25.00
2023-05-19T04:52:14.598Z,31.45
2023-05-19T04:53:14.612Z,40.08
2023-05-19T04:54:14.573Z,31.78
2023-05-19T04:55:14.583Z,27.02
2023-05-19T04:56:14.878Z,28.41
2023-05-19T04:57:14.572Z,33.46
2023-05-19T04:58:14.548Z,29.27
2023-05-19T04:59:14.543Z,25.78
2023-05-19T05:00:14.650Z,37.42
2023-05-19T05:01:14.518Z,56.06
2023-05-19T05:02:14.595Z,79.93
2023-05-19T05:03:14.680Z,55.85
2023-05-19T05:04:14.577Z,35.98
2023-05-19T05:05:14.527Z,26.11
2023-05-19T05:06:14.513Z,29.96
2023-05-19T05:07:14.455Z,15.99
2023-05-19T05:08:14.504Z,24.88
2023-05-19T05:09:14.467Z,25.00
2023-05-19T05:10:14.503Z,25.00
2023-05-19T05:11:14.444Z,34.43
2023-05-19T05:12:14.444Z,46.40
2023-05-19T05:13:14.466Z,55.98
2023-05-19T05:14:14.448Z,53.87
2023-05-19T05:15:14.473Z,73.24
2023-05-19T05:16:14.517Z,91.68
2023-05-19T05:17:14.448Z,88.75
2023-05-19T05:18:14.409Z,60.18
2023-05-19T05:19:14.453Z,25.49
2023-05-19T05:20:14.439Z,22.12
2023-05-19T05:21:14.450Z,25.00
2023-05-19T05:22:14.396Z,25.00
2023-05-19T05:23:14.390Z,25.00
2023-05-19T05:24:14.395Z,25.00
2023-05-19T05:25:14.406Z,27.03
2023-05-19T05:26:14.376Z,24.81
2023-05-19T05:27:14.424Z,42.40
2023-05-19T05:28:14.484Z,53.40
2023-05-19T05:29:14.541Z,41.60
2023-05-19T05:30:14.540Z,26.45
2023-05-19T05:31:14.612Z,27.81
2023-05-19T05:32:14.667Z,25.00
2023-05-19T05:33:14.867Z,29.94
2023-05-19T05:34:14.728Z,30.06
2023-05-19T05:35:14.787Z,48.54
2023-05-19T05:36:14.855Z,79.04
2023-05-19T05:37:15.405Z,108.45
2023-05-19T05:38:14.920Z,146.80
2023-05-19T05:39:15.058Z,128.24
2023-05-19T05:40:15.021Z,149.19
2023-05-19T05:41:15.450Z,151.17
2023-05-19T05:42:15.083Z,133.90
2023-05-19T05:43:15.155Z,103.22
2023-05-19T05:44:15.198Z,121.39
2023-05-19T05:45:15.261Z,135.03
2023-05-19T05:46:15.356Z,144.23
2023-05-19T05:47:15.339Z,181.51
2023-05-19T05:48:15.413Z,181.64
2023-05-19T05:49:15.433Z,172.76
2023-05-19T05:50:15.436Z,165.40
2023-05-19T05:51:15.915Z,155.45
2023-05-19T05:52:15.533Z,141.10
2023-05-19T05:53:15.596Z,125.19
2023-05-19T05:54:15.632Z,123.64
2023-05-19T05:55:15.692Z,124.14
2023-05-19T05:56:15.896Z,124.96
2023-05-19T05:57:15.755Z,140.51
2023-05-19T05:58:15.803Z,162.96
2023-05-19T05:59:15.881Z,180.24
2023-05-19T06:00:15.912Z,181.84
2023-05-19T06:01:15.927Z,165.25
2023-05-19T06:02:16.018Z,160.08
2023-05-19T06:03:16.135Z,172.04
2023-05-19T06:04:16.039Z,186.06
2023-05-19T06:05:16.111Z,185.63
2023-05-19T06:06:16.171Z,182.85
2023-05-19T06:07:16.195Z,193.90
2023-05-19T06:08:16.188Z,212.41
2023-05-19T06:09:16.251Z,250.00
2023-05-19T06:10:16.324Z,273.67
2023-05-19T06:11:16.325Z,248.66
2023-05-19T06:12:16.402Z,249.81
2023-05-19T06:13:16.415Z,254.59
2023-05-19T06:14:16.473Z,243.31
2023-05-19T06:15:16.540Z,203.78
2023-05-19T06:16:16.624Z,193.05
2023-05-19T06:17:16.551Z,192.15
2023-05-19T06:18:16.570Z,173.77
2023-05-19T06:19:16.581Z,155.03
2023-05-19T06:20:17.376Z,166.33
2023-05-19T06:21:16.633Z,176.18
2023-05-19T06:22:16.638Z,164.47
2023-05-19T06:23:16.688Z,161.98
2023-05-19T06:24:16.704Z,143.28
2023-05-19T06:25:16.709Z,159.52
2023-05-19T06:26:16.755Z,161.17
2023-05-19T06:27:16.854Z,153.66
2023-05-19T06:28:16.742Z,170.98
2023-05-19T06:29:16.817Z,174.93
2023-05-19T06:30:16.804Z,166.21
2023-05-19T06:31:16.878Z,141.48
2023-05-19T06:32:16.812Z,137.45
2023-05-19T06:33:16.837Z,129.95
2023-05-19T06:34:16.813Z,111.51
2023-05-19T06:35:16.827Z,110.10
2023-05-19T06:36:16.840Z,100.55
2023-05-19T06:37:16.967Z,82.97
2023-05-19T06:38:16.850Z,97.07
2023-05-19T06:39:16.859Z,110.51
2023-05-19T06:40:16.883Z,89.18
2023-05-19T06:41:16.881Z,79.24
2023-05-19T06:42:16.918Z,78.58
2023-05-19T06:43:16.852Z,77.00
2023-05-19T06:44:17.113Z,69.43
2023-05-19T06:45:16.899Z,82.60
2023-05-19T06:46:16.901Z,99.01
2023-05-19T06:47:16.928Z,106.14
2023-05-19T06:48:16.970Z,93.71
2023-05-19T06:49:16.883Z,86.33
2023-05-19T06:50:16.930Z,92.11
2023-05-19T06:51:16.898Z,84.43
2023-05-19T06:52:16.961Z,57.21
2023-05-19T06:53:17.054Z,38.98
2023-05-19T06:54:17.106Z,4.69
2023-05-19T06:55:17.117Z,8.64
2023-05-19T06:56:17.175Z,30.20
2023-05-19T06:57:17.214Z,43.71
2023-05-19T06:58:17.280Z,48.69
2023-05-19T06:59:17.313Z,43.03
2023-05-19T07:00:18.807Z,39.99
2023-05-19T07:01:17.504Z,38.04
2023-05-19T07:02:17.605Z,41.03
2023-05-19T07:03:17.597Z,44.25
2023-05-19T07:04:17.574Z,45.76
2023-05-19T07:05:17.556Z,60.40
2023-05-19T07:06:17.556Z,62.19
2023-05-19T07:07:17.585Z,55.57
2023-05-19T07:08:17.684Z,48.89
2023-05-19T07:09:17.695Z,25.96
2023-05-19T07:10:17.679Z,10.64
2023-05-19T07:11:17.672Z,14.63
2023-05-19T07:12:17.695Z,11.55
2023-05-19T07:13:17.721Z,27.85
2023-05-19T07:14:17.734Z,24.88
2023-05-19T07:15:17.728Z,21.52
2023-05-19T07:16:17.749Z,28.07
2023-05-19T07:17:17.733Z,36.43
2023-05-19T07:18:17.751Z,31.96
2023-05-19T07:19:17.767Z,43.88
2023-05-19T07:20:17.764Z,25.00
2023-05-19T07:21:17.755Z,29.91
2023-05-19T07:22:17.772Z,37.82
2023-05-19T07:23:17.781Z,22.09
2023-05-19T07:24:17.798Z,26.98
2023-05-19T07:25:17.798Z,31.15
2023-05-19T07:26:17.838Z,25.41
2023-05-19T07:27:17.917Z,26.55
2023-05-19T07:28:17.800Z,28.60
2023-05-19T07:29:17.875Z,26.09
2023-05-19T07:30:17.814Z,35.16
2023-05-19T07:31:18.048Z,39.39
2023-05-19T07:32:18.086Z,47.04
2023-05-19T07:33:18.045Z,49.17
2023-05-19T07:34:18.041Z,59.64
2023-05-19T07:35:18.058Z,62.55
2023-05-19T07:36:18.013Z,68.01
2023-05-19T07:37:18.435Z,59.83
2023-05-19T07:38:18.014Z,56.76
2023-05-19T07:39:18.079Z,44.18
2023-05-19T07:40:18.029Z,36.81
2023-05-19T07:41:18.052Z,32.45
2023-05-19T07:42:18.100Z,41.88
2023-05-19T07:43:18.088Z,46.27
2023-05-19T07:44:18.152Z,35.81
2023-05-19T07:45:18.108Z,31.20
2023-05-19T07:46:18.282Z,27.33
2023-05-19T07:47:18.236Z,28.12
2023-05-19T07:48:18.275Z,29.25
2023-05-19T07:49:18.297Z,34.86
2023-05-19T07:50:18.389Z,38.70
2023-05-19T07:51:18.404Z,47.33
2023-05-19T07:52:18.446Z,55.89
2023-05-19T07:53:18.509Z,65.67
2023-05-19T07:54:18.539Z,75.39
2023-05-19T07:55:18.596Z,77.50
2023-05-19T07:56:18.607Z,66.65
2023-05-19T07:57:18.914Z,65.94
2023-05-19T07:58:18.726Z,63.71
2023-05-19T07:59:18.764Z,62.01
2023-05-19T08:00:18.828Z,61.14
2023-05-19T08:01:18.886Z,73.45
2023-05-19T08:02:19.029Z,85.75
2023-05-19T08:03:19.211Z,83.52
2023-05-19T08:04:19.177Z,64.21
2023-05-19T08:05:19.124Z,50.98
2023-05-19T08:06:19.199Z,52.91
2023-05-19T08:07:19.302Z,61.08
2023-05-19T08:08:19.329Z,64.61
2023-05-19T08:09:19.348Z,58.87
2023-05-19T08:10:19.422Z,57.29
2023-05-19T08:11:19.527Z,64.34
2023-05-19T08:12:19.592Z,61.27
2023-05-19T08:13:19.651Z,54.74
2023-05-19T08:14:19.648Z,62.63
2023-05-19T08:15:19.710Z,59.87
2023-05-19T08:16:19.800Z,58.04
2023-05-19T08:17:19.845Z,38.75
2023-05-19T08:18:19.925Z,28.48
2023-05-19T08:19:20.081Z,31.27
2023-05-19T08:20:20.063Z,40.64
2023-05-19T08:21:20.042Z,36.64
2023-05-19T08:22:20.124Z,25.10
2023-05-19T08:23:20.113Z,24.76
2023-05-19T08:24:20.223Z,25.00
2023-05-19T08:25:20.222Z,30.30
2023-05-19T08:26:20.266Z,28.52
2023-05-19T08:27:20.306Z,28.98
2023-05-19T08:28:20.260Z,25.00
2023-05-19T08:29:20.312Z,25.00
2023-05-19T08:30:20.377Z,29.06
2023-05-19T08:31:20.350Z,46.48
2023-05-19T08:32:20.483Z,51.60
2023-05-19T08:33:20.431Z,28.51
2023-05-19T08:34:20.518Z,32.64
2023-05-19T08:35:20.527Z,53.72
2023-05-19T08:36:20.569Z,55.24
2023-05-19T08:37:20.990Z,49.02
2023-05-19T08:38:20.792Z,53.20
2023-05-19T08:39:20.688Z,31.75
2023-05-19T08:40:20.755Z,24.26
2023-05-19T08:41:20.837Z,25.50
2023-05-19T08:42:20.982Z,26.89
2023-05-19T08:43:20.848Z,27.14
2023-05-19T08:44:20.902Z,37.30
2023-05-19T08:45:20.885Z,25.91
2023-05-19T08:46:20.982Z,26.37
2023-05-19T08:47:20.942Z,21.91
2023-05-19T08:48:21.026Z,25.70
2023-05-19T08:49:21.349Z,33.60
2023-05-19T08:50:21.044Z,37.01
2023-05-19T08:51:21.077Z,40.05
2023-05-19T08:53:40.664Z,25.00
2023-05-19T08:54:40.773Z,25.00
2023-05-19T08:55:40.633Z,25.00
2023-05-19T08:56:50.868Z,25.00
2023-05-19T08:57:55.423Z,25.00
2023-05-19T08:58:56.631Z,25.00
2023-05-19T08:59:40.576Z,25.00
2023-05-19T09:00:52.627Z,25.00
2023-05-19T09:01:51.439Z,25.00
2023-05-19T09:03:00.815Z,25.00
2023-05-19T09:03:50.815Z,25.00
2023-05-19T09:07:29.986Z,25.00
2023-05-19T09:08:35.929Z,25.00
2023-05-19T09:09:19.860Z,25.00
2023-05-19T09:10:19.779Z,25.00
2023-05-19T09:11:19.787Z,25.00
2023-05-19T09:12:19.795Z,25.00
2023-05-19T09:13:19.765Z,25.00
2023-05-19T09:14:19.750Z,33.17
2023-05-19T09:15:19.739Z,79.10
2023-05-19T09:16:19.791Z,97.32
2023-05-19T09:17:19.788Z,46.81
2023-05-19T09:18:19.726Z,57.89
2023-05-19T09:19:19.708Z,20.65
2023-05-19T09:20:19.731Z,79.81
2023-05-19T09:21:19.707Z,47.00
2023-05-19T09:22:19.716Z,23.21
2023-05-19T09:23:19.691Z,38.71
2023-05-19T09:24:19.668Z,12.44
2023-05-19T09:25:19.660Z,0.00
2023-05-19T09:26:19.653Z,0.00
2023-05-19T09:27:19.657Z,36.45
2023-05-19T09:28:19.640Z,59.57
2023-05-19T09:29:19.647Z,49.35
2023-05-19T09:30:19.740Z,35.92
2023-05-19T09:31:19.590Z,21.82
2023-05-19T09:32:20.073Z,25.87
2023-05-19T09:33:19.638Z,25.00
2023-05-19T09:34:19.591Z,34.37
2023-05-19T09:35:19.622Z,37.97
2023-05-19T09:36:19.604Z,105.17
2023-05-19T09:37:19.612Z,54.94
2023-05-19T09:38:19.654Z,21.44
2023-05-19T09:39:19.557Z,23.10
2023-05-19T09:40:19.557Z,49.76
2023-05-19T09:41:19.557Z,45.71
2023-05-19T09:42:19.536Z,34.40
2023-05-19T09:43:19.632Z,11.52
2023-05-19T09:44:19.504Z,1.38
2023-05-19T09:45:20.519Z,25.00
2023-05-19T09:46:19.732Z,19.62
2023-05-19T09:47:19.671Z,49.42
2023-05-19T09:48:19.673Z,80.50
2023-05-19T09:49:19.696Z,94.54
2023-05-19T09:50:19.843Z,92.47
2023-05-19T09:51:19.810Z,104.58
2023-05-19T09:52:19.827Z,122.50
2023-05-19T09:53:19.934Z,125.77
2023-05-19T09:54:19.913Z,139.99
2023-05-19T09:55:19.954Z,128.64
2023-05-19T09:56:19.982Z,97.52
2023-05-19T09:57:19.988Z,101.53
2023-05-19T09:58:19.994Z,119.97
2023-05-19T09:59:20.015Z,108.28
2023-05-19T10:00:20.075Z,122.54
2023-05-19T10:01:20.143Z,97.43
2023-05-19T10:02:20.115Z,127.34
2023-05-19T10:03:20.201Z,146.12
2023-05-19T10:04:20.133Z,127.90
2023-05-19T10:05:20.394Z,114.58
2023-05-19T10:06:20.213Z,129.98
2023-05-19T10:07:20.539Z,127.46
2023-05-19T10:08:20.184Z,128.43
2023-05-19T10:09:20.220Z,119.91
2023-05-19T10:10:20.264Z,59.41
2023-05-19T10:11:20.276Z,43.07
2023-05-19T10:12:20.352Z,86.23
2023-05-19T10:13:20.377Z,67.47
2023-05-19T10:14:20.452Z,78.68
2023-05-19T10:15:22.175Z,22.23
2023-05-19T10:16:20.648Z,39.67
2023-05-19T10:17:20.702Z,77.40
2023-05-19T10:18:20.735Z,86.24
2023-05-19T10:19:20.824Z,86.65
2023-05-19T10:20:20.745Z,108.95
2023-05-19T10:21:20.760Z,138.63
2023-05-19T10:22:20.761Z,126.65
2023-05-19T10:23:20.779Z,148.73
2023-05-19T10:24:20.759Z,181.21
2023-05-19T10:25:20.804Z,193.60
2023-05-19T10:26:20.814Z,164.66
2023-05-19T10:27:20.951Z,146.35
2023-05-19T10:28:20.974Z,145.09
2023-05-19T10:29:21.036Z,177.57
2023-05-19T10:30:21.090Z,187.85
2023-05-19T10:31:21.054Z,188.63
2023-05-19T10:32:21.166Z,187.51
2023-05-19T10:33:21.181Z,187.20
2023-05-19T10:34:21.158Z,171.46
2023-05-19T10:35:21.238Z,191.72
2023-05-19T10:36:21.314Z,196.39
2023-05-19T10:37:21.612Z,209.88
2023-05-19T10:38:21.349Z,194.26
2023-05-19T10:39:21.384Z,203.19
2023-05-19T10:40:21.450Z,225.97
2023-05-19T10:41:21.471Z,246.43
2023-05-19T10:42:21.516Z,247.67
2023-05-19T10:43:21.547Z,249.19
2023-05-19T10:44:21.641Z,239.50
2023-05-19T10:45:21.669Z,221.05
2023-05-19T10:46:21.661Z,228.75
2023-05-19T10:47:21.743Z,235.11
2023-05-19T10:48:21.729Z,204.80
2023-05-19T10:49:21.786Z,211.10
2023-05-19T10:50:21.789Z,224.50
2023-05-19T10:51:21.761Z,234.80
2023-05-19T10:52:21.781Z,242.72
2023-05-19T10:53:21.888Z,235.59
2023-05-19T10:54:21.819Z,246.19
2023-05-19T10:55:21.801Z,261.20
2023-05-19T10:56:21.997Z,250.00
2023-05-19T10:57:21.830Z,228.79
2023-05-19T10:58:21.840Z,246.20
2023-05-19T10:59:21.850Z,231.90
2023-05-19T11:00:21.852Z,229.00
2023-05-19T11:01:21.947Z,195.70
2023-05-19T11:02:21.996Z,191.27
2023-05-19T11:03:22.070Z,155.37
2023-05-19T11:04:22.016Z,143.34
2023-05-19T11:05:22.052Z,129.60
2023-05-19T11:06:22.087Z,121.07
2023-05-19T11:07:22.134Z,106.39
2023-05-19T11:08:22.189Z,121.85
2023-05-19T11:09:31.085Z,136.81
2023-05-19T11:10:23.310Z,129.25
2023-05-19T11:11:23.310Z,137.65
2023-05-19T11:12:22.200Z,129.69
2023-05-19T11:13:22.614Z,118.00
2023-05-19T11:14:22.162Z,112.63
2023-05-19T11:15:22.229Z,129.54
2023-05-19T11:16:22.213Z,142.77
2023-05-19T11:17:22.607Z,135.42
2023-05-19T11:18:22.183Z,131.03
2023-05-19T11:19:22.299Z,164.28
2023-05-19T11:20:22.245Z,170.27
2023-05-19T11:21:22.311Z,160.05
2023-05-19T11:22:22.676Z,149.12
2023-05-19T11:23:22.455Z,142.71
2023-05-19T11:24:22.412Z,139.49
2023-05-19T11:25:22.501Z,136.44
2023-05-19T11:26:22.524Z,141.37
2023-05-19T11:27:23.126Z,142.34
2023-05-19T11:28:22.668Z,141.33
2023-05-19T11:29:22.674Z,154.78
2023-05-19T11:30:22.743Z,152.09
2023-05-19T11:31:22.798Z,152.15
2023-05-19T11:32:23.107Z,130.59
2023-05-19T11:33:22.861Z,127.96
2023-05-19T11:34:22.967Z,142.17
2023-05-19T11:35:22.902Z,156.77
2023-05-19T11:36:22.926Z,156.41
2023-05-19T11:37:23.004Z,152.01
2023-05-19T11:38:22.993Z,140.95
2023-05-19T11:39:23.138Z,117.07
2023-05-19T11:40:23.052Z,112.23
2023-05-19T11:41:23.070Z,100.08
2023-05-19T11:42:23.074Z,92.17
2023-05-19T11:43:23.052Z,85.22
2023-05-19T11:44:23.073Z,73.15
2023-05-19T11:45:23.085Z,78.64
2023-05-19T11:46:23.178Z,88.93
2023-05-19T11:47:23.202Z,85.59
2023-05-19T11:48:23.302Z,91.45
2023-05-19T11:49:23.218Z,80.75
2023-05-19T11:50:23.231Z,54.44
2023-05-19T11:51:23.217Z,46.14
2023-05-19T11:52:23.611Z,54.68
2023-05-19T11:53:23.301Z,36.82
2023-05-19T11:54:23.192Z,26.85
2023-05-19T11:55:23.214Z,24.96
2023-05-19T11:56:23.285Z,26.85
2023-05-19T11:57:23.279Z,29.48
2023-05-19T11:58:23.314Z,33.62
2023-05-19T11:59:23.285Z,43.69
2023-05-19T12:00:23.262Z,26.39
2023-05-19T12:01:23.289Z,46.02
2023-05-19T12:02:23.377Z,74.62
2023-05-19T12:03:23.431Z,78.46
2023-05-19T12:04:23.262Z,54.17
2023-05-19T12:05:23.419Z,34.55
2023-05-19T12:06:23.396Z,41.06
2023-05-19T12:07:23.600Z,34.84
2023-05-19T12:08:23.345Z,26.87
2023-05-19T12:09:23.349Z,34.59
2023-05-19T12:10:23.343Z,31.84
2023-05-19T12:11:23.352Z,27.08
2023-05-19T12:12:23.545Z,34.22
2023-05-19T12:13:23.376Z,35.23
2023-05-19T12:14:23.389Z,28.24
2023-05-19T12:15:23.408Z,16.35
2023-05-19T12:16:23.517Z,6.27
2023-05-19T12:17:23.483Z,27.72
2023-05-19T12:18:23.447Z,25.00
2023-05-19T12:19:23.624Z,26.01
2023-05-19T12:20:23.466Z,25.53
2023-05-19T12:21:23.534Z,26.04
2023-05-19T12:22:24.521Z,21.37
2023-05-19T12:23:23.505Z,26.73
2023-05-19T12:24:23.459Z,30.53
2023-05-19T12:25:23.460Z,37.18
2023-05-19T12:26:23.510Z,44.88
2023-05-19T12:27:23.459Z,46.66
2023-05-19T12:28:23.477Z,51.95
2023-05-19T12:29:23.449Z,45.02
2023-05-19T12:30:23.440Z,45.57
2023-05-19T12:31:23.477Z,49.87
2023-05-19T12:32:23.509Z,53.60
2023-05-19T12:33:23.395Z,54.68
2023-05-19T12:34:23.397Z,40.31
2023-05-19T12:35:23.394Z,29.21
2023-05-19T12:36:23.390Z,29.76
2023-05-19T12:37:23.427Z,25.04
2023-05-19T12:38:23.393Z,25.00
2023-05-19T12:39:23.404Z,16.60
2023-05-19T12:40:23.374Z,10.66
2023-05-19T12:41:23.357Z,22.12
2023-05-19T12:42:23.381Z,31.65
2023-05-19T12:43:23.348Z,38.20
2023-05-19T12:44:23.374Z,35.97
2023-05-19T12:45:23.339Z,42.65
2023-05-19T12:46:23.405Z,47.42
2023-05-19T12:47:23.400Z,57.38
2023-05-19T12:48:23.379Z,65.75